Etusivu
METAR-TAF:

METAR-TAF

Lentoasemat :

Barcelonan lentoasema

Barcelona, Espanja

Leveyspiiri: 41-17N, Pituuspiiri: 002-04E, korkeus merenpinnasta: 4 m

Tämänhetkinen sää

Tämä raportti tehtiin 42 minuuttia sitten, kello 23.30 UTC
Tuuli 3 kn luoteesta
Lämpötila 17°C
Kosteus 82%
Ilmanpaine 1018 hPa
Näkyvyys 10 km tai enemmän
ei pilviä alle 1500 m:ssä eikä cumulonimbus-pilviä

METAR: LEBL 252330Z 32003KT CAVOK 17/14 Q1018 NOSIG

Aika: 02:12 (00:12 UTC)

Sääennuste

Tämä raportti tehtiin 1 tunti ja 12 minuuttia sitten, kello 23.00 UTC
Ennuste voimassa 26. päivästä klo 00 UTC - 26. päivään klo 24 UTC
Tuuli 3 kn eri suunnista
Näkyvyys 10 km tai enemmän
Muutamia pilviä 4000 ft:n korkeudessa
Tulossa
26. päivästä klo 07 UTC - 26. päivään klo 09 UTC
Tuuli 10 kn etelästä/lounaasta
Tulossa
26. päivästä klo 15 UTC - 26. päivään klo 17 UTC
Tuuli 10 kn idästä

TAF: LEBL 252300Z 2600/2624 VRB03KT 9999 FEW040 TX23/2613Z TN15/2605Z BECMG 2607/2609 20010KT BECMG 2615/2617 08010KT

Säähavainnot ja -ennusteet yli 4000 lentoasemalta (METAR- ja TAF-raportit).

Käytössä olevat sääasemat on merkitty karttaan keltaisilla ja punaisilla pisteillä.

Aseta hiiri pisteen päälle nähdäksesi sääaseman nimen.

Klikkaa sitten nähdäksesi säähavainnot ja -ennusteet.

Kartan vaihtaminen: klikkaa mustalla rastilla varustettuja vihreitä pisteitä, niin voit zoomata sisään; viivalla varustettua vihreää pistettä, niin voit zoomata ulos tai vihreitä nuolia, niin pääset viereisille kartoille.


METAR-TAF: